Portland, Oregon
Traffic Map
Current Weather Conditions
Portland, Oregon
Broken Clouds
Broken Clouds
10°
Feels Like: 10°
Wind Chill: 10° Ceiling: 25000
Heat Index: 10° Visibility: 10mi
Dew Point: Wind: 3mph
Humidity: 57% Direction: 280° (W)
Pressure: 30.39in Gusts: 0mph
Raw Report DataKPDX 051953Z 28003KT 10SM BKN250 10/02 A3039 RMK AO2 SLP290 T01000017
Traffic Incident Summary
Active as of:
Severity:
Category:
InformationThere was an issue retrieving the traffic information for this location. Please try a different location or try again shortly.
Advertisements
Track Severe Weather on mobile